sensor_id;sensor_type;location;lat;lon;timestamp;P1;durP1;ratioP1;P2;durP2;ratioP2
2001;SDS011;1003;48.002;7.788;2023-04-24T00:01:40;0.70;;;0.60;;
2001;SDS011;1003;48.002;7.788;2023-04-24T00:04:08;4.27;;;0.70;;
2001;SDS011;1003;48.002;7.788;2023-04-24T00:06:36;1.40;;;0.73;;
2001;SDS011;1003;48.002;7.788;2023-04-24T00:09:03;1.17;;;0.60;;
2001;SDS011;1003;48.002;7.788;2023-04-24T00:11:32;0.90;;;0.80;;
2001;SDS011;1003;48.002;7.788;2023-04-24T00:13:59;3.97;;;0.90;;
2001;SDS011;1003;48.002;7.788;2023-04-24T00:16:26;0.70;;;0.70;;
2001;SDS011;1003;48.002;7.788;2023-04-24T00:18:53;0.70;;;0.57;;
2001;SDS011;1003;48.002;7.788;2023-04-24T00:21:20;1.03;;;0.93;;
2001;SDS011;1003;48.002;7.788;2023-04-24T00:23:50;1.17;;;0.70;;
2001;SDS011;1003;48.002;7.788;2023-04-24T00:26:17;0.80;;;0.80;;
2001;SDS011;1003;48.002;7.788;2023-04-24T00:28:45;1.20;;;0.90;;
2001;SDS011;1003;48.002;7.788;2023-04-24T00:31:13;0.93;;;0.60;;
2001;SDS011;1003;48.002;7.788;2023-04-24T00:33:40;1.77;;;0.70;;
2001;SDS011;1003;48.002;7.788;2023-04-24T00:36:07;0.87;;;0.60;;
2001;SDS011;1003;48.002;7.788;2023-04-24T00:38:34;0.60;;;0.60;;
2001;SDS011;1003;48.002;7.788;2023-04-24T00:41:01;0.67;;;0.47;;
2001;SDS011;1003;48.002;7.788;2023-04-24T00:43:28;0.80;;;0.53;;
2001;SDS011;1003;48.002;7.788;2023-04-24T00:45:57;0.57;;;0.53;;
2001;SDS011;1003;48.002;7.788;2023-04-24T00:48:26;0.50;;;0.50;;
2001;SDS011;1003;48.002;7.788;2023-04-24T00:50:54;1.50;;;0.70;;
2001;SDS011;1003;48.002;7.788;2023-04-24T00:53:22;1.23;;;0.60;;
2001;SDS011;1003;48.002;7.788;2023-04-24T00:55:49;0.60;;;0.60;;
2001;SDS011;1003;48.002;7.788;2023-04-24T00:58:17;1.53;;;0.60;;
2001;SDS011;1003;48.002;7.788;2023-04-24T01:00:44;1.07;;;0.60;;
2001;SDS011;1003;48.002;7.788;2023-04-24T01:03:13;0.50;;;0.50;;
2001;SDS011;1003;48.002;7.788;2023-04-24T01:05:41;0.53;;;0.53;;
2001;SDS011;1003;48.002;7.788;2023-04-24T01:08:09;0.60;;;0.60;;
2001;SDS011;1003;48.002;7.788;2023-04-24T01:10:36;0.60;;;0.60;;
2001;SDS011;1003;48.002;7.788;2023-04-24T01:13:06;0.80;;;0.63;;
2001;SDS011;1003;48.002;7.788;2023-04-24T01:15:34;1.13;;;0.60;;
2001;SDS011;1003;48.002;7.788;2023-04-24T01:18:02;0.40;;;0.40;;
2001;SDS011;1003;48.002;7.788;2023-04-24T01:20:30;2.13;;;0.70;;
2001;SDS011;1003;48.002;7.788;2023-04-24T01:23:01;0.70;;;0.60;;
2001;SDS011;1003;48.002;7.788;2023-04-24T01:25:28;1.10;;;0.80;;
2001;SDS011;1003;48.002;7.788;2023-04-24T01:27:56;0.87;;;0.60;;
2001;SDS011;1003;48.002;7.788;2023-04-24T01:30:24;1.37;;;0.50;;
2001;SDS011;1003;48.002;7.788;2023-04-24T01:32:51;1.53;;;0.80;;
2001;SDS011;1003;48.002;7.788;2023-04-24T01:35:19;1.83;;;0.83;;
2001;SDS011;1003;48.002;7.788;2023-04-24T01:37:47;0.50;;;0.50;;
2001;SDS011;1003;48.002;7.788;2023-04-24T01:40:15;0.70;;;0.63;;
2001;SDS011;1003;48.002;7.788;2023-04-24T01:42:42;0.70;;;0.70;;
2001;SDS011;1003;48.002;7.788;2023-04-24T01:45:11;1.00;;;0.90;;
2001;SDS011;1003;48.002;7.788;2023-04-24T01:47:38;0.80;;;0.80;;
2001;SDS011;1003;48.002;7.788;2023-04-24T01:50:06;0.70;;;0.67;;
2001;SDS011;1003;48.002;7.788;2023-04-24T01:52:35;0.60;;;0.60;;
2001;SDS011;1003;48.002;7.788;2023-04-24T01:55:02;0.80;;;0.70;;
2001;SDS011;1003;48.002;7.788;2023-04-24T01:57:32;0.80;;;0.70;;
2001;SDS011;1003;48.002;7.788;2023-04-24T02:00:00;0.97;;;0.70;;
2001;SDS011;1003;48.002;7.788;2023-04-24T02:02:29;1.90;;;0.70;;
2001;SDS011;1003;48.002;7.788;2023-04-24T02:04:56;1.23;;;0.70;;
2001;SDS011;1003;48.002;7.788;2023-04-24T02:07:25;1.23;;;0.70;;
2001;SDS011;1003;48.002;7.788;2023-04-24T02:09:52;0.80;;;0.70;;
2001;SDS011;1003;48.002;7.788;2023-04-24T02:12:20;0.97;;;0.70;;
2001;SDS011;1003;48.002;7.788;2023-04-24T02:14:48;0.67;;;0.60;;
2001;SDS011;1003;48.002;7.788;2023-04-24T02:17:15;0.60;;;0.60;;
2001;SDS011;1003;48.002;7.788;2023-04-24T02:19:44;1.27;;;0.87;;
2001;SDS011;1003;48.002;7.788;2023-04-24T02:22:11;1.63;;;0.90;;
2001;SDS011;1003;48.002;7.788;2023-04-24T02:24:38;1.80;;;0.80;;
2001;SDS011;1003;48.002;7.788;2023-04-24T02:27:06;0.87;;;0.77;;
2001;SDS011;1003;48.002;7.788;2023-04-24T02:29:33;2.23;;;0.80;;
2001;SDS011;1003;48.002;7.788;2023-04-24T02:32:02;2.97;;;1.03;;
2001;SDS011;1003;48.002;7.788;2023-04-24T02:34:29;1.07;;;0.80;;
2001;SDS011;1003;48.002;7.788;2023-04-24T02:36:56;1.97;;;0.90;;
2001;SDS011;1003;48.002;7.788;2023-04-24T02:39:23;1.90;;;0.83;;
2001;SDS011;1003;48.002;7.788;2023-04-24T02:41:50;0.83;;;0.70;;
2001;SDS011;1003;48.002;7.788;2023-04-24T02:44:17;0.70;;;0.70;;
2001;SDS011;1003;48.002;7.788;2023-04-24T02:46:44;1.80;;;0.77;;
2001;SDS011;1003;48.002;7.788;2023-04-24T02:49:12;1.40;;;0.83;;
2001;SDS011;1003;48.002;7.788;2023-04-24T02:51:40;2.50;;;0.83;;
2001;SDS011;1003;48.002;7.788;2023-04-24T02:54:07;0.73;;;0.57;;
2001;SDS011;1003;48.002;7.788;2023-04-24T02:56:35;1.27;;;0.70;;
2001;SDS011;1003;48.002;7.788;2023-04-24T02:59:02;1.23;;;0.87;;
2001;SDS011;1003;48.002;7.788;2023-04-24T03:01:29;1.07;;;0.70;;
2001;SDS011;1003;48.002;7.788;2023-04-24T03:03:56;0.70;;;0.70;;
2001;SDS011;1003;48.002;7.788;2023-04-24T03:06:25;3.40;;;0.70;;
2001;SDS011;1003;48.002;7.788;2023-04-24T03:08:53;2.07;;;0.73;;
2001;SDS011;1003;48.002;7.788;2023-04-24T03:11:20;2.17;;;0.90;;
2001;SDS011;1003;48.002;7.788;2023-04-24T03:13:47;1.13;;;0.70;;
2001;SDS011;1003;48.002;7.788;2023-04-24T03:16:14;2.50;;;0.73;;
2001;SDS011;1003;48.002;7.788;2023-04-24T03:18:41;0.93;;;0.80;;
2001;SDS011;1003;48.002;7.788;2023-04-24T03:21:08;2.07;;;1.00;;
2001;SDS011;1003;48.002;7.788;2023-04-24T03:23:36;1.67;;;0.97;;
2001;SDS011;1003;48.002;7.788;2023-04-24T03:26:03;0.60;;;0.57;;
2001;SDS011;1003;48.002;7.788;2023-04-24T03:28:31;1.83;;;0.70;;
2001;SDS011;1003;48.002;7.788;2023-04-24T03:30:58;1.20;;;0.83;;
2001;SDS011;1003;48.002;7.788;2023-04-24T03:33:25;0.93;;;0.80;;
2001;SDS011;1003;48.002;7.788;2023-04-24T03:35:52;1.40;;;0.90;;
2001;SDS011;1003;48.002;7.788;2023-04-24T03:38:19;2.30;;;1.10;;
2001;SDS011;1003;48.002;7.788;2023-04-24T03:40:47;2.63;;;0.90;;
2001;SDS011;1003;48.002;7.788;2023-04-24T03:43:14;1.10;;;0.90;;
2001;SDS011;1003;48.002;7.788;2023-04-24T03:45:41;0.87;;;0.87;;
2001;SDS011;1003;48.002;7.788;2023-04-24T03:48:08;2.03;;;1.10;;
2001;SDS011;1003;48.002;7.788;2023-04-24T03:50:35;2.17;;;0.90;;
2001;SDS011;1003;48.002;7.788;2023-04-24T03:53:02;1.50;;;0.80;;
2001;SDS011;1003;48.002;7.788;2023-04-24T03:55:30;1.63;;;0.80;;
2001;SDS011;1003;48.002;7.788;2023-04-24T03:57:58;1.43;;;0.93;;
2001;SDS011;1003;48.002;7.788;2023-04-24T04:00:25;2.07;;;0.60;;
2001;SDS011;1003;48.002;7.788;2023-04-24T04:02:52;0.90;;;0.70;;
2001;SDS011;1003;48.002;7.788;2023-04-24T04:05:20;1.57;;;0.90;;
2001;SDS011;1003;48.002;7.788;2023-04-24T04:07:47;1.83;;;0.80;;
2001;SDS011;1003;48.002;7.788;2023-04-24T04:10:14;1.53;;;0.90;;
2001;SDS011;1003;48.002;7.788;2023-04-24T04:12:42;2.27;;;1.13;;
2001;SDS011;1003;48.002;7.788;2023-04-24T04:15:10;1.67;;;1.10;;
2001;SDS011;1003;48.002;7.788;2023-04-24T04:17:37;2.53;;;1.20;;
2001;SDS011;1003;48.002;7.788;2023-04-24T04:20:05;1.03;;;0.80;;
2001;SDS011;1003;48.002;7.788;2023-04-24T04:22:35;2.07;;;1.10;;
2001;SDS011;1003;48.002;7.788;2023-04-24T04:25:02;1.70;;;1.07;;
2001;SDS011;1003;48.002;7.788;2023-04-24T04:27:29;2.83;;;1.30;;
2001;SDS011;1003;48.002;7.788;2023-04-24T04:29:57;1.73;;;1.10;;
2001;SDS011;1003;48.002;7.788;2023-04-24T04:32:29;1.53;;;1.20;;
2001;SDS011;1003;48.002;7.788;2023-04-24T04:34:56;1.23;;;1.00;;
2001;SDS011;1003;48.002;7.788;2023-04-24T04:37:24;2.90;;;1.20;;
2001;SDS011;1003;48.002;7.788;2023-04-24T04:39:51;1.83;;;1.50;;
2001;SDS011;1003;48.002;7.788;2023-04-24T04:42:18;1.80;;;1.33;;
2001;SDS011;1003;48.002;7.788;2023-04-24T04:44:45;1.73;;;1.20;;
2001;SDS011;1003;48.002;7.788;2023-04-24T04:47:12;1.30;;;1.17;;
2001;SDS011;1003;48.002;7.788;2023-04-24T04:49:41;2.30;;;1.30;;
2001;SDS011;1003;48.002;7.788;2023-04-24T04:52:08;1.53;;;1.10;;
2001;SDS011;1003;48.002;7.788;2023-04-24T04:54:35;1.47;;;1.20;;
2001;SDS011;1003;48.002;7.788;2023-04-24T04:57:02;2.43;;;1.30;;
2001;SDS011;1003;48.002;7.788;2023-04-24T04:59:29;2.07;;;1.40;;
2001;SDS011;1003;48.002;7.788;2023-04-24T05:01:56;1.57;;;1.27;;
2001;SDS011;1003;48.002;7.788;2023-04-24T05:04:23;1.40;;;1.30;;
2001;SDS011;1003;48.002;7.788;2023-04-24T05:06:51;1.97;;;1.30;;
2001;SDS011;1003;48.002;7.788;2023-04-24T05:09:18;1.50;;;1.40;;
2001;SDS011;1003;48.002;7.788;2023-04-24T05:11:45;1.40;;;1.30;;
2001;SDS011;1003;48.002;7.788;2023-04-24T05:14:12;2.50;;;1.50;;
2001;SDS011;1003;48.002;7.788;2023-04-24T05:16:39;2.47;;;1.50;;
2001;SDS011;1003;48.002;7.788;2023-04-24T05:19:07;2.83;;;1.60;;
2001;SDS011;1003;48.002;7.788;2023-04-24T05:21:34;3.93;;;1.53;;
2001;SDS011;1003;48.002;7.788;2023-04-24T05:24:02;2.90;;;1.50;;
2001;SDS011;1003;48.002;7.788;2023-04-24T05:26:29;1.60;;;1.50;;
2001;SDS011;1003;48.002;7.788;2023-04-24T05:28:57;2.30;;;1.47;;
2001;SDS011;1003;48.002;7.788;2023-04-24T05:31:26;2.33;;;1.70;;
2001;SDS011;1003;48.002;7.788;2023-04-24T05:33:53;3.80;;;1.50;;
2001;SDS011;1003;48.002;7.788;2023-04-24T05:36:20;3.90;;;1.93;;
2001;SDS011;1003;48.002;7.788;2023-04-24T05:38:47;2.47;;;1.70;;
2001;SDS011;1003;48.002;7.788;2023-04-24T05:41:16;2.60;;;1.67;;
2001;SDS011;1003;48.002;7.788;2023-04-24T05:43:43;2.60;;;1.80;;
2001;SDS011;1003;48.002;7.788;2023-04-24T05:46:11;2.67;;;2.00;;
2001;SDS011;1003;48.002;7.788;2023-04-24T05:48:38;2.67;;;1.97;;
2001;SDS011;1003;48.002;7.788;2023-04-24T05:51:05;2.03;;;1.73;;
2001;SDS011;1003;48.002;7.788;2023-04-24T05:53:32;4.80;;;2.10;;
2001;SDS011;1003;48.002;7.788;2023-04-24T05:55:59;3.20;;;1.80;;
2001;SDS011;1003;48.002;7.788;2023-04-24T05:58:27;2.40;;;1.90;;
2001;SDS011;1003;48.002;7.788;2023-04-24T06:00:55;4.40;;;2.10;;
2001;SDS011;1003;48.002;7.788;2023-04-24T06:03:23;2.87;;;2.13;;
2001;SDS011;1003;48.002;7.788;2023-04-24T06:05:51;4.23;;;2.37;;
2001;SDS011;1003;48.002;7.788;2023-04-24T06:08:18;3.20;;;1.87;;
2001;SDS011;1003;48.002;7.788;2023-04-24T06:10:45;2.63;;;1.93;;
2001;SDS011;1003;48.002;7.788;2023-04-24T06:13:12;2.83;;;2.10;;
2001;SDS011;1003;48.002;7.788;2023-04-24T06:15:41;2.27;;;1.90;;
2001;SDS011;1003;48.002;7.788;2023-04-24T06:18:09;4.07;;;2.10;;
2001;SDS011;1003;48.002;7.788;2023-04-24T06:20:37;2.77;;;2.00;;
2001;SDS011;1003;48.002;7.788;2023-04-24T06:23:05;2.47;;;1.90;;
2001;SDS011;1003;48.002;7.788;2023-04-24T06:25:32;2.20;;;1.93;;
2001;SDS011;1003;48.002;7.788;2023-04-24T06:27:59;3.63;;;2.10;;
2001;SDS011;1003;48.002;7.788;2023-04-24T06:30:26;2.30;;;2.10;;
2001;SDS011;1003;48.002;7.788;2023-04-24T06:32:55;3.00;;;2.30;;
2001;SDS011;1003;48.002;7.788;2023-04-24T06:35:22;2.20;;;1.90;;
2001;SDS011;1003;48.002;7.788;2023-04-24T06:37:51;2.27;;;2.07;;
2001;SDS011;1003;48.002;7.788;2023-04-24T06:40:18;3.00;;;2.13;;
2001;SDS011;1003;48.002;7.788;2023-04-24T06:42:45;2.77;;;2.07;;
2001;SDS011;1003;48.002;7.788;2023-04-24T06:45:12;2.07;;;1.90;;
2001;SDS011;1003;48.002;7.788;2023-04-24T06:47:39;3.83;;;3.00;;
2001;SDS011;1003;48.002;7.788;2023-04-24T06:50:08;2.93;;;2.33;;
2001;SDS011;1003;48.002;7.788;2023-04-24T06:52:36;2.93;;;2.20;;
2001;SDS011;1003;48.002;7.788;2023-04-24T06:55:03;3.27;;;2.40;;
2001;SDS011;1003;48.002;7.788;2023-04-24T06:57:33;2.30;;;2.10;;
2001;SDS011;1003;48.002;7.788;2023-04-24T07:00:00;2.63;;;2.17;;
2001;SDS011;1003;48.002;7.788;2023-04-24T07:02:27;4.87;;;2.90;;
2001;SDS011;1003;48.002;7.788;2023-04-24T07:04:55;3.00;;;2.70;;
2001;SDS011;1003;48.002;7.788;2023-04-24T07:07:23;2.60;;;2.27;;
2001;SDS011;1003;48.002;7.788;2023-04-24T07:09:50;5.00;;;3.63;;
2001;SDS011;1003;48.002;7.788;2023-04-24T07:12:17;4.97;;;3.70;;
2001;SDS011;1003;48.002;7.788;2023-04-24T07:14:45;3.97;;;2.70;;
2001;SDS011;1003;48.002;7.788;2023-04-24T07:17:13;3.93;;;2.90;;
2001;SDS011;1003;48.002;7.788;2023-04-24T07:19:40;4.17;;;3.07;;
2001;SDS011;1003;48.002;7.788;2023-04-24T07:22:07;3.33;;;2.73;;
2001;SDS011;1003;48.002;7.788;2023-04-24T07:24:37;3.07;;;2.23;;
2001;SDS011;1003;48.002;7.788;2023-04-24T07:27:05;2.70;;;2.50;;
2001;SDS011;1003;48.002;7.788;2023-04-24T07:29:32;3.33;;;2.23;;
2001;SDS011;1003;48.002;7.788;2023-04-24T07:31:59;1.97;;;1.87;;
2001;SDS011;1003;48.002;7.788;2023-04-24T07:34:26;2.90;;;1.97;;
2001;SDS011;1003;48.002;7.788;2023-04-24T07:36:53;2.10;;;1.90;;
2001;SDS011;1003;48.002;7.788;2023-04-24T07:39:20;2.67;;;1.70;;
2001;SDS011;1003;48.002;7.788;2023-04-24T07:41:48;2.20;;;2.00;;
2001;SDS011;1003;48.002;7.788;2023-04-24T07:44:15;1.77;;;1.67;;
2001;SDS011;1003;48.002;7.788;2023-04-24T07:46:42;2.20;;;2.00;;
2001;SDS011;1003;48.002;7.788;2023-04-24T07:49:09;3.53;;;1.80;;
2001;SDS011;1003;48.002;7.788;2023-04-24T07:51:36;1.77;;;1.67;;
2001;SDS011;1003;48.002;7.788;2023-04-24T07:54:04;1.77;;;1.67;;
2001;SDS011;1003;48.002;7.788;2023-04-24T07:56:31;2.80;;;1.90;;
2001;SDS011;1003;48.002;7.788;2023-04-24T07:59:01;1.80;;;1.70;;
2001;SDS011;1003;48.002;7.788;2023-04-24T08:01:28;2.17;;;1.97;;
2001;SDS011;1003;48.002;7.788;2023-04-24T08:03:55;2.10;;;1.90;;
2001;SDS011;1003;48.002;7.788;2023-04-24T08:06:22;2.00;;;1.80;;
2001;SDS011;1003;48.002;7.788;2023-04-24T08:08:50;2.80;;;1.90;;
2001;SDS011;1003;48.002;7.788;2023-04-24T08:11:17;2.97;;;1.80;;
2001;SDS011;1003;48.002;7.788;2023-04-24T08:13:44;2.80;;;1.97;;
2001;SDS011;1003;48.002;7.788;2023-04-24T08:16:13;2.27;;;1.90;;
2001;SDS011;1003;48.002;7.788;2023-04-24T08:18:40;4.20;;;1.97;;
2001;SDS011;1003;48.002;7.788;2023-04-24T08:21:07;3.13;;;2.00;;
2001;SDS011;1003;48.002;7.788;2023-04-24T08:23:36;2.47;;;1.90;;
2001;SDS011;1003;48.002;7.788;2023-04-24T08:26:03;3.23;;;1.80;;
2001;SDS011;1003;48.002;7.788;2023-04-24T08:28:32;4.60;;;1.60;;
2001;SDS011;1003;48.002;7.788;2023-04-24T08:30:59;1.63;;;1.40;;
2001;SDS011;1003;48.002;7.788;2023-04-24T08:33:27;2.17;;;1.70;;
2001;SDS011;1003;48.002;7.788;2023-04-24T08:35:59;2.13;;;1.47;;
2001;SDS011;1003;48.002;7.788;2023-04-24T08:38:26;2.63;;;1.60;;
2001;SDS011;1003;48.002;7.788;2023-04-24T08:40:53;1.90;;;1.43;;
2001;SDS011;1003;48.002;7.788;2023-04-24T08:43:24;1.83;;;1.63;;
2001;SDS011;1003;48.002;7.788;2023-04-24T08:45:53;1.67;;;1.50;;
2001;SDS011;1003;48.002;7.788;2023-04-24T08:48:24;1.90;;;1.50;;
2001;SDS011;1003;48.002;7.788;2023-04-24T08:50:54;3.20;;;1.60;;
2001;SDS011;1003;48.002;7.788;2023-04-24T08:53:23;2.50;;;1.50;;
2001;SDS011;1003;48.002;7.788;2023-04-24T08:55:51;1.57;;;1.40;;
2001;SDS011;1003;48.002;7.788;2023-04-24T08:58:22;2.10;;;1.47;;
2001;SDS011;1003;48.002;7.788;2023-04-24T09:00:51;2.57;;;1.80;;
2001;SDS011;1003;48.002;7.788;2023-04-24T09:03:20;1.63;;;1.47;;
2001;SDS011;1003;48.002;7.788;2023-04-24T09:05:50;4.00;;;1.77;;
2001;SDS011;1003;48.002;7.788;2023-04-24T09:08:19;2.00;;;1.57;;
2001;SDS011;1003;48.002;7.788;2023-04-24T09:10:50;2.37;;;1.73;;
2001;SDS011;1003;48.002;7.788;2023-04-24T09:13:18;1.63;;;1.43;;
2001;SDS011;1003;48.002;7.788;2023-04-24T09:15:46;2.90;;;1.50;;
2001;SDS011;1003;48.002;7.788;2023-04-24T09:18:14;2.80;;;1.73;;
2001;SDS011;1003;48.002;7.788;2023-04-24T09:23:26;2.17;;;1.30;;
2001;SDS011;1003;48.002;7.788;2023-04-24T09:25:54;4.10;;;1.40;;
2001;SDS011;1003;48.002;7.788;2023-04-24T09:28:25;1.53;;;1.23;;
2001;SDS011;1003;48.002;7.788;2023-04-24T09:31:02;1.97;;;1.40;;
2001;SDS011;1003;48.002;7.788;2023-04-24T09:33:32;2.07;;;1.30;;
2001;SDS011;1003;48.002;7.788;2023-04-24T09:36:00;1.83;;;1.63;;
2001;SDS011;1003;48.002;7.788;2023-04-24T09:38:32;2.27;;;1.50;;
2001;SDS011;1003;48.002;7.788;2023-04-24T09:41:01;1.57;;;1.37;;
2001;SDS011;1003;48.002;7.788;2023-04-24T09:43:30;1.70;;;1.20;;
2001;SDS011;1003;48.002;7.788;2023-04-24T09:45:58;1.70;;;1.50;;
2001;SDS011;1003;48.002;7.788;2023-04-24T09:48:31;2.83;;;1.30;;
2001;SDS011;1003;48.002;7.788;2023-04-24T09:51:02;1.43;;;1.20;;
2001;SDS011;1003;48.002;7.788;2023-04-24T09:53:35;1.90;;;1.40;;
2001;SDS011;1003;48.002;7.788;2023-04-24T09:56:06;1.40;;;1.30;;
2001;SDS011;1003;48.002;7.788;2023-04-24T09:58:35;1.63;;;1.23;;
2001;SDS011;1003;48.002;7.788;2023-04-24T10:01:03;1.40;;;1.13;;
2001;SDS011;1003;48.002;7.788;2023-04-24T10:03:30;1.00;;;1.00;;
2001;SDS011;1003;48.002;7.788;2023-04-24T10:05:59;0.57;;;0.57;;
2001;SDS011;1003;48.002;7.788;2023-04-24T10:08:33;1.43;;;0.80;;
2001;SDS011;1003;48.002;7.788;2023-04-24T10:11:02;0.63;;;0.63;;
2001;SDS011;1003;48.002;7.788;2023-04-24T10:13:29;5.63;;;1.20;;
2001;SDS011;1003;48.002;7.788;2023-04-24T10:15:58;0.50;;;0.50;;
2001;SDS011;1003;48.002;7.788;2023-04-24T10:18:29;1.40;;;0.90;;
2001;SDS011;1003;48.002;7.788;2023-04-24T10:20:57;1.03;;;0.90;;
2001;SDS011;1003;48.002;7.788;2023-04-24T10:23:28;1.00;;;0.90;;
2001;SDS011;1003;48.002;7.788;2023-04-24T10:25:57;1.53;;;0.90;;
2001;SDS011;1003;48.002;7.788;2023-04-24T10:28:26;1.23;;;0.80;;
2001;SDS011;1003;48.002;7.788;2023-04-24T10:30:56;1.60;;;0.90;;
2001;SDS011;1003;48.002;7.788;2023-04-24T10:33:24;2.20;;;0.90;;
2001;SDS011;1003;48.002;7.788;2023-04-24T10:35:53;1.17;;;0.80;;
2001;SDS011;1003;48.002;7.788;2023-04-24T10:38:24;3.63;;;1.30;;
2001;SDS011;1003;48.002;7.788;2023-04-24T10:40:57;1.07;;;1.00;;
2001;SDS011;1003;48.002;7.788;2023-04-24T10:43:34;1.60;;;1.00;;
2001;SDS011;1003;48.002;7.788;2023-04-24T10:46:02;1.77;;;1.27;;
2001;SDS011;1003;48.002;7.788;2023-04-24T10:48:31;2.10;;;1.20;;
2001;SDS011;1003;48.002;7.788;2023-04-24T10:51:00;1.73;;;0.90;;
2001;SDS011;1003;48.002;7.788;2023-04-24T10:53:29;2.27;;;1.23;;
2001;SDS011;1003;48.002;7.788;2023-04-24T10:55:57;0.97;;;0.97;;
2001;SDS011;1003;48.002;7.788;2023-04-24T10:58:35;1.20;;;1.00;;
2001;SDS011;1003;48.002;7.788;2023-04-24T11:01:05;2.33;;;1.20;;
2001;SDS011;1003;48.002;7.788;2023-04-24T11:03:34;0.90;;;0.90;;
2001;SDS011;1003;48.002;7.788;2023-04-24T11:06:02;2.70;;;1.40;;
2001;SDS011;1003;48.002;7.788;2023-04-24T11:08:38;1.30;;;1.20;;
2001;SDS011;1003;48.002;7.788;2023-04-24T11:11:10;1.23;;;1.20;;
2001;SDS011;1003;48.002;7.788;2023-04-24T11:16:32;2.13;;;1.10;;
2001;SDS011;1003;48.002;7.788;2023-04-24T11:19:04;1.80;;;1.20;;
2001;SDS011;1003;48.002;7.788;2023-04-24T11:21:39;1.37;;;1.27;;
2001;SDS011;1003;48.002;7.788;2023-04-24T11:24:26;1.23;;;1.13;;
2001;SDS011;1003;48.002;7.788;2023-04-24T11:26:59;1.33;;;1.20;;
2001;SDS011;1003;48.002;7.788;2023-04-24T11:29:40;1.80;;;1.20;;
2001;SDS011;1003;48.002;7.788;2023-04-24T11:32:16;1.23;;;1.10;;
2001;SDS011;1003;48.002;7.788;2023-04-24T11:34:50;1.30;;;1.10;;
2001;SDS011;1003;48.002;7.788;2023-04-24T11:37:20;1.50;;;1.40;;
2001;SDS011;1003;48.002;7.788;2023-04-24T11:39:51;2.40;;;1.30;;
2001;SDS011;1003;48.002;7.788;2023-04-24T11:42:20;2.17;;;1.20;;
2001;SDS011;1003;48.002;7.788;2023-04-24T11:44:49;1.43;;;1.33;;
2001;SDS011;1003;48.002;7.788;2023-04-24T11:47:19;2.77;;;1.40;;
2001;SDS011;1003;48.002;7.788;2023-04-24T11:49:49;1.20;;;1.10;;
2001;SDS011;1003;48.002;7.788;2023-04-24T11:52:17;1.50;;;1.27;;
2001;SDS011;1003;48.002;7.788;2023-04-24T11:54:48;1.90;;;1.30;;
2001;SDS011;1003;48.002;7.788;2023-04-24T11:57:18;1.90;;;1.20;;
2001;SDS011;1003;48.002;7.788;2023-04-24T11:59:46;1.40;;;1.30;;
2001;SDS011;1003;48.002;7.788;2023-04-24T12:02:20;1.37;;;1.27;;
2001;SDS011;1003;48.002;7.788;2023-04-24T12:04:48;2.73;;;1.30;;
2001;SDS011;1003;48.002;7.788;2023-04-24T12:07:16;1.27;;;1.17;;
2001;SDS011;1003;48.002;7.788;2023-04-24T12:09:43;1.37;;;1.27;;
2001;SDS011;1003;48.002;7.788;2023-04-24T12:12:15;1.40;;;1.17;;
2001;SDS011;1003;48.002;7.788;2023-04-24T12:14:46;1.63;;;1.10;;
2001;SDS011;1003;48.002;7.788;2023-04-24T12:17:15;2.00;;;1.23;;
2001;SDS011;1003;48.002;7.788;2023-04-24T12:19:46;1.20;;;1.10;;
2001;SDS011;1003;48.002;7.788;2023-04-24T12:22:14;1.47;;;1.00;;
2001;SDS011;1003;48.002;7.788;2023-04-24T12:24:57;1.07;;;0.90;;
2001;SDS011;1003;48.002;7.788;2023-04-24T12:27:30;1.30;;;1.20;;
2001;SDS011;1003;48.002;7.788;2023-04-24T12:29:58;2.40;;;1.20;;
2001;SDS011;1003;48.002;7.788;2023-04-24T12:32:27;2.00;;;0.90;;
2001;SDS011;1003;48.002;7.788;2023-04-24T12:34:55;1.00;;;1.00;;
2001;SDS011;1003;48.002;7.788;2023-04-24T12:37:22;1.30;;;1.10;;
2001;SDS011;1003;48.002;7.788;2023-04-24T12:40:01;1.93;;;1.20;;
2001;SDS011;1003;48.002;7.788;2023-04-24T12:42:33;2.37;;;1.13;;
2001;SDS011;1003;48.002;7.788;2023-04-24T12:45:02;1.20;;;1.10;;
2001;SDS011;1003;48.002;7.788;2023-04-24T12:47:31;1.67;;;1.20;;
2001;SDS011;1003;48.002;7.788;2023-04-24T12:50:00;1.73;;;1.30;;
2001;SDS011;1003;48.002;7.788;2023-04-24T12:52:28;1.20;;;1.10;;
2001;SDS011;1003;48.002;7.788;2023-04-24T12:54:57;2.20;;;1.27;;
2001;SDS011;1003;48.002;7.788;2023-04-24T12:57:26;2.03;;;1.33;;
2001;SDS011;1003;48.002;7.788;2023-04-24T12:59:57;1.70;;;1.27;;
2001;SDS011;1003;48.002;7.788;2023-04-24T13:02:25;1.30;;;1.20;;
2001;SDS011;1003;48.002;7.788;2023-04-24T13:04:55;2.27;;;1.40;;
2001;SDS011;1003;48.002;7.788;2023-04-24T13:07:23;3.33;;;1.30;;
2001;SDS011;1003;48.002;7.788;2023-04-24T13:09:51;1.73;;;1.20;;
2001;SDS011;1003;48.002;7.788;2023-04-24T13:12:21;1.40;;;1.30;;
2001;SDS011;1003;48.002;7.788;2023-04-24T13:14:50;1.30;;;1.20;;
2001;SDS011;1003;48.002;7.788;2023-04-24T13:17:19;1.73;;;1.20;;
2001;SDS011;1003;48.002;7.788;2023-04-24T13:19:46;1.43;;;1.33;;
2001;SDS011;1003;48.002;7.788;2023-04-24T13:22:16;2.23;;;1.40;;
2001;SDS011;1003;48.002;7.788;2023-04-24T13:24:44;1.40;;;1.30;;
2001;SDS011;1003;48.002;7.788;2023-04-24T13:27:13;2.10;;;1.43;;
2001;SDS011;1003;48.002;7.788;2023-04-24T13:29:40;1.50;;;1.40;;
2001;SDS011;1003;48.002;7.788;2023-04-24T13:32:08;1.20;;;1.10;;
2001;SDS011;1003;48.002;7.788;2023-04-24T13:34:37;2.40;;;1.23;;
2001;SDS011;1003;48.002;7.788;2023-04-24T13:37:04;1.23;;;1.13;;
2001;SDS011;1003;48.002;7.788;2023-04-24T13:39:32;1.50;;;1.40;;
2001;SDS011;1003;48.002;7.788;2023-04-24T13:42:00;2.27;;;1.57;;
2001;SDS011;1003;48.002;7.788;2023-04-24T13:44:27;3.40;;;1.47;;
2001;SDS011;1003;48.002;7.788;2023-04-24T13:46:55;2.23;;;1.60;;
2001;SDS011;1003;48.002;7.788;2023-04-24T13:49:23;1.50;;;1.40;;
2001;SDS011;1003;48.002;7.788;2023-04-24T13:51:52;1.63;;;1.47;;
2001;SDS011;1003;48.002;7.788;2023-04-24T13:54:21;1.60;;;1.50;;
2001;SDS011;1003;48.002;7.788;2023-04-24T13:56:48;2.37;;;1.70;;
2001;SDS011;1003;48.002;7.788;2023-04-24T13:59:15;1.60;;;1.50;;
2001;SDS011;1003;48.002;7.788;2023-04-24T14:01:42;3.60;;;1.73;;
2001;SDS011;1003;48.002;7.788;2023-04-24T14:04:10;3.10;;;1.80;;
2001;SDS011;1003;48.002;7.788;2023-04-24T14:06:37;3.37;;;1.80;;
2001;SDS011;1003;48.002;7.788;2023-04-24T14:09:06;1.63;;;1.50;;
2001;SDS011;1003;48.002;7.788;2023-04-24T14:11:33;1.90;;;1.43;;
2001;SDS011;1003;48.002;7.788;2023-04-24T14:14:01;1.70;;;1.50;;
2001;SDS011;1003;48.002;7.788;2023-04-24T14:16:28;2.17;;;1.40;;
2001;SDS011;1003;48.002;7.788;2023-04-24T14:18:56;2.43;;;1.37;;
2001;SDS011;1003;48.002;7.788;2023-04-24T14:21:23;1.60;;;1.40;;
2001;SDS011;1003;48.002;7.788;2023-04-24T14:23:50;2.13;;;1.53;;
2001;SDS011;1003;48.002;7.788;2023-04-24T14:26:19;4.17;;;1.53;;
2001;SDS011;1003;48.002;7.788;2023-04-24T14:28:46;4.20;;;1.43;;
2001;SDS011;1003;48.002;7.788;2023-04-24T14:31:13;1.57;;;1.43;;
2001;SDS011;1003;48.002;7.788;2023-04-24T14:33:40;1.80;;;1.30;;
2001;SDS011;1003;48.002;7.788;2023-04-24T14:36:08;1.40;;;1.30;;
2001;SDS011;1003;48.002;7.788;2023-04-24T14:38:35;1.60;;;1.50;;
2001;SDS011;1003;48.002;7.788;2023-04-24T14:41:02;1.20;;;1.10;;
2001;SDS011;1003;48.002;7.788;2023-04-24T14:43:38;1.37;;;1.20;;
2001;SDS011;1003;48.002;7.788;2023-04-24T14:46:05;1.20;;;1.10;;
2001;SDS011;1003;48.002;7.788;2023-04-24T14:48:33;1.47;;;1.37;;
2001;SDS011;1003;48.002;7.788;2023-04-24T14:51:00;1.37;;;1.27;;
2001;SDS011;1003;48.002;7.788;2023-04-24T14:53:27;1.50;;;1.30;;
2001;SDS011;1003;48.002;7.788;2023-04-24T14:55:54;1.50;;;1.30;;
2001;SDS011;1003;48.002;7.788;2023-04-24T14:58:21;1.57;;;1.47;;
2001;SDS011;1003;48.002;7.788;2023-04-24T15:00:49;3.17;;;1.60;;
2001;SDS011;1003;48.002;7.788;2023-04-24T15:03:19;1.97;;;1.43;;
2001;SDS011;1003;48.002;7.788;2023-04-24T15:05:46;2.73;;;1.63;;
2001;SDS011;1003;48.002;7.788;2023-04-24T15:08:13;1.40;;;1.30;;
2001;SDS011;1003;48.002;7.788;2023-04-24T15:10:40;1.57;;;1.47;;
2001;SDS011;1003;48.002;7.788;2023-04-24T15:13:08;2.30;;;1.50;;
2001;SDS011;1003;48.002;7.788;2023-04-24T15:15:35;3.90;;;1.60;;
2001;SDS011;1003;48.002;7.788;2023-04-24T15:18:04;2.90;;;1.90;;
2001;SDS011;1003;48.002;7.788;2023-04-24T15:20:33;3.03;;;1.70;;
2001;SDS011;1003;48.002;7.788;2023-04-24T15:23:00;1.57;;;1.43;;
2001;SDS011;1003;48.002;7.788;2023-04-24T15:25:27;1.90;;;1.80;;
2001;SDS011;1003;48.002;7.788;2023-04-24T15:27:54;1.80;;;1.50;;